Summit, South Dakota
Current Conditions -  °F | °C
As of 12:53 PM on Friday 24 Oct 2014 (Local Time) from KATY Reporting Station
Clear Clear  
Wind Chill: 68°   Ceiling: Unl
Heat Index: 68°   Visibility: 10mi
Dew Point: 40°   Wind: 7mph
Humidity: 36%   Direction: 280°W
Pressure: 29.88"   Gusts: NA
Location:  45.3°N, 97.04°W
Report Text: KATY 241753Z AUTO 28006KT 10SM CLR 20/04 A2988 RMK AO2 SLP120 T02000044 10200 20039 50003
Loading
Personal Weather Stations






























Interactive Weather Map New forecast layout! Learn more

10-Day Weather Forecast

Advertisements
Track Severe Weather on mobile